Latest Weather Observations for Sydney Harbour

IDN60801

Issued at 12:05 am EDT Friday 28 November 2014 (issued every 30 minutes, with the page automatically refreshed every 10 minutes)

About weather observations | Map of weather stations | Latest weather observations for NSW | Other Formats
Station Details ID: 066196 Name: WEDDING CAKE WEST Lat: -33.84 Lon: 151.26 Height: 6.0 m
Data from the previous 72 hours. | See also: Recent months for locations in New South Wales
Date/Time
EDT
Temp
°C
App
Temp
°C
Dew
Point
Rel
Hum
%
Delta-T
°C
Wind Press
QNH
hPa
Press
MSL
hPa
Rain
since 9 am
mm
Dir
 
Spd
km/h
Gust
km/h
Spd
kts
Gust
kts
28/12:00am 19.5 - - - - SE 17 24 9 13 - - -
 
Date/Time
EDT
Temp
°C
App
Temp
°C
Dew
Point
Rel
Hum
%
Delta-T
°C
Wind Press
QNH
hPa
Press
MSL
hPa
Rain
since 9 am
mm
Dir
 
Spd
km/h
Gust
km/h
Spd
kts
Gust
kts
27/11:30pm 19.4 - - - - SE 17 20 9 11 - - -
27/11:00pm 19.4 - - - - SE 17 20 9 11 - - -
27/10:30pm 19.4 - - - - SE 19 22 10 12 - - -
27/10:00pm 19.5 - - - - SE 19 24 10 13 - - -
27/09:30pm 19.4 - - - - SE 17 22 9 12 - - -
27/09:00pm 19.3 - - - - SE 20 24 11 13 - - -
27/08:30pm 19.3 - - - - SE 19 24 10 13 - - -
27/08:00pm 19.3 - - - - SSE 17 22 9 12 - - -
27/07:30pm 19.3 - - - - SSE 20 26 11 14 - - -
27/07:00pm 19.3 - - - - SE 20 26 11 14 - - -
27/06:30pm 19.1 - - - - SSE 20 28 11 15 - - -
27/06:00pm 19.1 - - - - SSE 19 28 10 15 - - -
27/05:30pm 19.1 - - - - SSE 20 30 11 16 - - -
27/05:00pm 19.5 - - - - SE 17 24 9 13 - - -
27/04:30pm 19.3 - - - - SSE 19 24 10 13 - - -
27/04:00pm 19.3 - - - - SSE 20 26 11 14 - - -
27/03:30pm 19.4 - - - - SSE 20 26 11 14 - - -
27/03:00pm 19.7 - - - - SE 22 28 12 15 - - -
27/02:30pm 19.5 - - - - SSE 22 32 12 17 - - -
27/02:00pm 19.5 - - - - SSE 22 30 12 16 - - -
27/01:30pm 19.4 - - - - SSE 22 35 12 19 - - -
27/01:00pm 19.2 - - - - SSE 26 33 14 18 - - -
27/12:30pm 19.3 - - - - SSE 22 28 12 15 - - -
27/12:00pm 19.3 - - - - SSE 26 33 14 18 - - -
27/11:30am 19.2 - - - - SSE 24 32 13 17 - - -
27/11:00am 19.4 - - - - SSE 26 35 14 19 - - -
27/10:30am 19.4 - - - - SSE 26 33 14 18 - - -
27/10:00am 19.1 - - - - SSE 26 35 14 19 - - -
27/09:30am 18.9 - - - - S 26 32 14 17 - - -
27/09:00am 19.8 - - - - SSE 26 41 14 22 - - -
27/08:30am 19.9 - - - - SSE 28 41 15 22 - - -
27/08:00am 19.9 - - - - SSE 30 39 16 21 - - -
27/07:30am 20.0 - - - - SSE 28 46 15 25 - - -
27/07:28am 20.0 - - - - SSE 28 46 15 25 - - -
27/07:00am 20.1 - - - - SE 30 39 16 21 - - -
27/06:30am 19.9 - - - - SE 32 41 17 22 - - -
27/06:00am 19.6 - - - - SE 32 41 17 22 - - -
27/05:30am 19.7 - - - - SE 32 44 17 24 - - -
27/05:00am 19.9 - - - - SE 33 41 18 22 - - -
27/04:30am 19.7 - - - - SE 30 39 16 21 - - -
27/04:16am 20.1 - - - - SE 28 32 15 17 - - -
27/04:00am 20.6 - - - - SSE 9 13 5 7 - - -
27/03:30am 20.5 - - - - SSE 11 13 6 7 - - -
27/03:00am 20.7 - - - - SE 9 11 5 6 - - -
27/02:30am 20.7 - - - - SE 11 15 6 8 - - -
27/02:00am 20.8 - - - - SE 13 15 7 8 - - -
27/01:30am 20.8 - - - - SE 13 17 7 9 - - -
27/01:00am 21.0 - - - - SE 15 19 8 10 - - -
27/12:30am 21.0 - - - - ESE 13 17 7 9 - - -
27/12:00am 21.0 - - - - E 13 17 7 9 - - -
 
Date/Time
EDT
Temp
°C
App
Temp
°C
Dew
Point
Rel
Hum
%
Delta-T
°C
Wind Press
QNH
hPa
Press
MSL
hPa
Rain
since 9 am
mm
Dir
 
Spd
km/h
Gust
km/h
Spd
kts
Gust
kts
26/11:30pm 21.1 - - - - E 17 22 9 12 - - -
26/11:00pm 21.2 - - - - E 19 22 10 12 - - -
26/10:30pm 21.2 - - - - E 13 15 7 8 - - -
26/10:00pm 21.2 - - - - E 17 20 9 11 - - -
26/09:30pm 21.3 - - - - E 19 22 10 12 - - -
26/09:00pm 21.3 - - - - E 17 22 9 12 - - -
26/08:30pm 21.3 - - - - ENE 22 26 12 14 - - -
26/08:00pm 21.3 - - - - NE 24 30 13 16 - - -
26/07:30pm 21.4 - - - - NE 28 32 15 17 - - -
26/07:00pm 21.3 - - - - NE 30 35 16 19 - - -
26/06:30pm 21.3 - - - - NE 33 37 18 20 - - -
26/06:00pm 21.4 - - - - NE 32 39 17 21 - - -
26/05:30pm 21.4 - - - - NE 30 37 16 20 - - -
26/05:00pm 21.4 - - - - NE 33 39 18 21 - - -
26/04:30pm 21.5 - - - - NE 32 39 17 21 - - -
26/04:00pm 21.0 - - - - ENE 26 30 14 16 - - -
26/03:30pm 20.9 - - - - ENE 26 30 14 16 - - -
26/03:00pm 20.7 - - - - ENE 28 35 15 19 - - -
26/02:30pm 20.9 - - - - NE 30 37 16 20 - - -
26/02:00pm 20.6 - - - - NNE 24 32 13 17 - - -
26/01:30pm 20.5 - - - - NNE 22 28 12 15 - - -
26/01:00pm 20.4 - - - - NNE 22 28 12 15 - - -
26/12:30pm 20.4 - - - - NNE 20 28 11 15 - - -
26/12:00pm 20.4 - - - - NE 20 26 11 14 - - -
26/11:30am 20.3 - - - - NE 22 26 12 14 - - -
26/11:00am 20.2 - - - - NE 20 24 11 13 - - -
26/10:30am 20.2 - - - - ENE 20 26 11 14 - - -
26/10:00am 20.1 - - - - ENE 20 26 11 14 - - -
26/09:30am 20.2 - - - - ENE 20 24 11 13 - - -
26/09:00am 20.1 - - - - NE 20 26 11 14 - - -
26/08:30am 20.1 - - - - NE 22 28 12 15 - - -
26/08:00am 19.9 - - - - NE 24 30 13 16 - - -
26/07:30am 20.0 - - - - NE 26 30 14 16 - - -
26/07:00am 19.8 - - - - NE 22 26 12 14 - - -
26/06:30am 19.7 - - - - NE 26 30 14 16 - - -
26/06:00am 19.7 - - - - NE 24 28 13 15 - - -
26/05:30am 19.7 - - - - NE 22 26 12 14 - - -
26/05:00am 19.7 - - - - NE 26 32 14 17 - - -
26/04:30am 19.6 - - - - ENE 26 30 14 16 - - -
26/04:00am 19.6 - - - - ENE 22 32 12 17 - - -
26/03:30am 19.6 - - - - ENE 22 28 12 15 - - -
26/03:00am 19.6 - - - - ENE 20 28 11 15 - - -
26/02:30am 19.7 - - - - ENE 19 24 10 13 - - -
26/02:00am 19.6 - - - - E 19 24 10 13 - - -
26/01:30am 19.8 - - - - E 19 24 10 13 - - -
26/01:00am 19.8 - - - - E 20 24 11 13 - - -
26/12:30am 19.9 - - - - E 20 24 11 13 - - -
26/12:00am 19.9 - - - - E 20 24 11 13 - - -
 
Date/Time
EDT
Temp
°C
App
Temp
°C
Dew
Point
Rel
Hum
%
Delta-T
°C
Wind Press
QNH
hPa
Press
MSL
hPa
Rain
since 9 am
mm
Dir
 
Spd
km/h
Gust
km/h
Spd
kts
Gust
kts
25/11:30pm 19.9 - - - - E 17 22 9 12 - - -
25/11:00pm 19.9 - - - - E 17 20 9 11 - - -
25/10:30pm 20.1 - - - - ESE 17 20 9 11 - - -
25/10:00pm 20.0 - - - - E 17 20 9 11 - - -
25/09:30pm 20.0 - - - - E 19 20 10 11 - - -
25/09:00pm 20.1 - - - - E 17 22 9 12 - - -
25/08:30pm 20.0 - - - - E 15 20 8 11 - - -
25/08:00pm 19.9 - - - - ESE 19 22 10 12 - - -
25/07:30pm 19.9 - - - - E 20 24 11 13 - - -
25/07:00pm 20.1 - - - - ESE 20 24 11 13 - - -
25/06:30pm 20.4 - - - - E 19 24 10 13 - - -
25/06:00pm 20.6 - - - - ESE 20 24 11 13 - - -
25/05:30pm 20.3 - - - - E 20 28 11 15 - - -
25/05:00pm 20.5 - - - - ESE 22 28 12 15 - - -
25/04:30pm 20.5 - - - - E 22 30 12 16 - - -
25/04:00pm 20.6 - - - - ESE 22 30 12 16 - - -
25/03:30pm 20.6 - - - - ESE 24 28 13 15 - - -
25/03:00pm 20.2 - - - - SE 22 33 12 18 - - -
25/02:30pm 20.1 - - - - SE 24 30 13 16 - - -
25/02:00pm 20.1 - - - - SE 22 28 12 15 - - -
25/01:30pm 20.2 - - - - SE 22 28 12 15 - - -
25/01:00pm 20.5 - - - - SSE 22 30 12 16 - - -
25/12:30pm 20.1 - - - - S 26 35 14 19 - - -
25/12:00pm 20.3 - - - - S 30 41 16 22 - - -
25/11:30am 20.4 - - - - S 35 46 19 25 - - -
25/11:00am 20.9 - - - - SSE 33 43 18 23 - - -
25/10:30am 21.4 - - - - S 41 48 22 26 - - -
25/10:23am 21.9 - - - - SSW 41 44 22 24 - - -
25/10:00am 24.1 - - - - SW 41 54 22 29 - - -
25/09:38am 24.4 - - - - SW 32 50 17 27 - - -
25/09:30am 24.1 - - - - SSW 28 37 15 20 - - -
25/09:00am 24.2 - - - - SW 20 24 11 13 - - -
25/08:30am 23.9 - - - - W 11 15 6 8 - - -
25/08:00am 23.7 - - - - WSW 13 19 7 10 - - -
25/07:30am 23.4 - - - - W 13 17 7 9 - - -
25/07:00am 22.9 - - - - W 9 17 5 9 - - -
25/06:30am 23.6 - - - - W 4 7 2 4 - - -
25/06:00am 23.7 - - - - WNW 19 22 10 12 - - -
25/05:30am 24.1 - - - - N 13 17 7 9 - - -
25/05:00am 23.9 - - - - NW 17 26 9 14 - - -
25/04:30am 23.6 - - - - NNW 20 32 11 17 - - -
25/04:00am 23.6 - - - - NNW 20 28 11 15 - - -
25/03:30am 23.5 - - - - NNW 24 39 13 21 - - -
25/03:00am 23.5 - - - - NNW 28 35 15 19 - - -
25/02:30am 23.5 - - - - NNW 20 28 11 15 - - -
25/02:00am 23.8 - - - - NNW 20 30 11 16 - - -
25/01:30am 24.3 - - - - NNW 24 35 13 19 - - -
25/01:00am 24.1 - - - - NNW 20 32 11 17 - - -
25/12:30am 24.0 - - - - NNW 22 32 12 17 - - -

Other Formats:

Comma delimited format used in spreadsheet applications
http://www.bom.gov.au/fwo/IDN60801/IDN60801.95766.axf

JavaScript Object Notation format (JSON) in row-major order
http://www.bom.gov.au/fwo/IDN60801/IDN60801.95766.json